| time (UTC) | temp C | wind direction | speed KPH | gust KPH | rain 1hr cm | rain 24hr cm | rain mn cm | humidity % | barometer mb |
| 20260510203004 | 27 | 119 | 9.7 | 17.7 | 0.00 | 0.33 | 0.00 | 70 | 1015.7 |
| 20260510201508 | 27 | 92 | 9.7 | 17.7 | 0.00 | 0.36 | 0.00 | 64 | 1015.4 |
| 20260510200011 | 27 | 115 | 9.7 | 19.3 | 0.00 | 0.46 | 0.00 | 69 | 1015.2 |
| 20260510194511 | 27 | 145 | 9.7 | 17.7 | 0.00 | 0.53 | 0.00 | 70 | 1015.3 |
| 20260510193005 | 27 | 155 | 8.0 | 27.4 | 0.00 | 0.66 | 0.00 | 70 | 1015.4 |
| 20260510191508 | 27 | 176 | 6.4 | 17.7 | 0.00 | 0.81 | 0.00 | 70 | 1015.5 |
| 20260510190008 | 27 | 138 | 9.7 | 20.9 | 0.00 | 0.94 | 0.00 | 69 | 1015.7 |
| 20260510184519 | 27 | 118 | 6.4 | 17.7 | 0.00 | 1.14 | 0.00 | 71 | 1015.7 |
| 20260510183012 | 27 | 146 | 9.7 | 20.9 | 0.00 | 1.22 | 0.00 | 70 | 1015.9 |
| 20260510181506 | 27 | 107 | 6.4 | 17.7 | 0.00 | 1.30 | 0.00 | 71 | 1016.0 |
| 20260510180007 | 27 | 121 | 6.4 | 16.1 | 0.00 | 1.42 | 0.00 | 72 | 1016.1 |
| 20260510174512 | 28 | 113 | 4.8 | 11.3 | 0.00 | 1.55 | 0.00 | 67 | 1016.3 |
| 20260510173009 | 28 | 193 | 4.8 | 14.5 | 0.00 | 1.83 | 0.00 | 68 | 1016.4 |
| 20260510171519 | 28 | 142 | 1.6 | 12.9 | 0.00 | 1.91 | 0.00 | 69 | 1016.5 |
| 20260510170008 | 28 | 44 | 4.8 | 12.9 | 0.00 | 2.41 | 0.00 | 67 | 1016.6 |
| 20260510164510 | 27 | 88 | 1.6 | 9.7 | 0.00 | 2.46 | 0.00 | 71 | 1016.8 |
| 20260510163015 | 27 | 59 | 1.6 | 12.9 | 0.00 | 2.51 | 0.00 | 75 | 1016.9 |
| 20260510161511 | 26 | 106 | 1.6 | 9.7 | 0.00 | 2.64 | 0.00 | 76 | 1016.8 |
| 20260510160011 | 26 | 30 | 3.2 | 9.7 | 0.00 | 2.74 | 0.00 | 77 | 1016.7 |
| 20260510154523 | 26 | 226 | 1.6 | 8.0 | 0.00 | 2.82 | 0.00 | 78 | 1016.6 |
| 20260510153022 | 25 | 38 | 3.2 | 12.9 | 0.00 | 2.95 | 0.00 | 79 | 1016.6 |
| 20260510151510 | 25 | 115 | 1.6 | 9.7 | 0.00 | 3.17 | 0.00 | 81 | 1016.5 |
| 20260510150006 | 24 | 130 | 1.6 | 8.0 | 0.00 | 3.48 | 0.00 | 84 | 1016.8 |
| 20260510144512 | 22 | 165 | 1.6 | 4.8 | 0.00 | 3.71 | 0.00 | 89 | 1016.9 |
| 20260510143013 | 22 | 46 | 3.2 | 8.0 | 0.00 | 3.96 | 0.00 | 92 | 1017.0 |
| 20260510141517 | 21 | 103 | 4.8 | 11.3 | 0.00 | 4.04 | 0.00 | 97 | 1017.0 |
| 20260510140006 | 21 | 173 | 0.0 | 4.8 | 0.00 | 4.09 | 0.00 | 99 | 1016.9 |
| 20260510134509 | 20 | 68 | 1.6 | 8.0 | 0.00 | 4.19 | 0.00 | 99 | 1016.7 |
| 20260510133012 | 20 | 92 | 4.8 | 8.0 | 0.00 | 4.39 | 0.00 | 99 | 1016.6 |
| 20260510131516 | 19 | 55 | 3.2 | 6.4 | 0.00 | 5.03 | 0.00 | 99 | 1016.4 |
| 20260510130018 | 19 | 67 | 3.2 | 6.4 | 0.00 | 6.48 | 0.00 | 99 | 1016.3 |
| 20260510124507 | 18 | 37 | 1.6 | 8.0 | 0.00 | 7.32 | 0.00 | 99 | 1016.2 |
| 20260510123020 | 18 | 57 | 1.6 | 4.8 | 0.00 | 7.32 | 0.00 | 99 | 1016.1 |
| 20260510121512 | 18 | 57 | 0.0 | 0.0 | 0.00 | 7.32 | 0.00 | 99 | 1016.0 |
| 20260510120018 | 18 | 70 | 0.0 | 1.6 | 0.00 | 7.32 | 0.00 | 99 | 1015.6 |
| 20260510114508 | 18 | 57 | 1.6 | 4.8 | 0.00 | 7.32 | 0.00 | 99 | 1015.1 |
| 20260510113007 | 18 | 109 | 0.0 | 6.4 | 0.00 | 7.32 | 0.00 | 99 | 1014.8 |
| 20260510111512 | 18 | 97 | 1.6 | 4.8 | 0.00 | 7.32 | 0.00 | 99 | 1014.4 |
| 20260510110028 | 18 | 54 | 1.6 | 4.8 | 0.00 | 7.32 | 0.00 | 99 | 1014.3 |
| 20260510104521 | 18 | 40 | 0.0 | 4.8 | 0.00 | 7.32 | 0.00 | 99 | 1013.9 |
| 20260510103004 | 18 | 70 | 1.6 | 6.4 | 0.00 | 7.32 | 0.00 | 99 | 1013.7 |
| 20260510101511 | 18 | 64 | 0.0 | 3.2 | 0.00 | 7.32 | 0.00 | 99 | 1013.5 |
| 20260510100013 | 18 | 31 | 1.6 | 6.4 | 0.00 | 7.32 | 0.00 | 99 | 1013.4 |
| 20260510094534 | 18 | 65 | 0.0 | 6.4 | 0.00 | 7.32 | 0.00 | 99 | 1013.4 |
| 20260510093023 | 18 | 352 | 3.2 | 6.4 | 0.00 | 7.52 | 0.00 | 99 | 1013.3 |
| 20260510091507 | 18 | 13 | 8.0 | 16.1 | 0.00 | 9.32 | 0.00 | 99 | 1013.3 |
| 20260510090011 | 18 | 302 | 1.6 | 8.0 | 0.00 | 12.34 | 0.00 | 99 | 1013.2 |
| 20260510084517 | 18 | 42 | 3.2 | 3.2 | 0.00 | 12.40 | 0.00 | 99 | 1013.2 |
| 20260510083023 | 18 | 70 | 0.0 | 0.0 | 0.00 | 12.40 | 0.00 | 99 | 1013.0 |
| 20260510081529 | 18 | 74 | 0.0 | 1.6 | 0.00 | 12.40 | 0.00 | 99 | 1013.0 |
| 20260510080038 | 18 | 66 | 0.0 | 4.8 | 0.00 | 12.40 | 0.00 | 99 | 1012.8 |
| 20260510074513 | 18 | 45 | 1.6 | 6.4 | 0.00 | 12.40 | 0.00 | 99 | 1012.8 |
| 20260510073033 | 18 | 88 | 3.2 | 6.4 | 0.00 | 12.40 | 0.00 | 99 | 1012.7 |
| 20260510071523 | 18 | 23 | 3.2 | 11.3 | 0.00 | 12.40 | 0.00 | 99 | 1012.7 |
| 20260510070008 | 19 | 10 | 1.6 | 6.4 | 0.00 | 12.40 | 0.00 | 98 | 1012.9 |
| 20260510064512 | 19 | 46 | 1.6 | 4.8 | 0.00 | 12.40 | 0.00 | 98 | 1012.8 |
| 20260510063019 | 19 | 27 | 0.0 | 3.2 | 0.00 | 12.40 | 0.00 | 98 | 1012.8 |
| 20260510061504 | 19 | 5 | 3.2 | 6.4 | 0.00 | 12.40 | 0.00 | 98 | 1012.9 |
| 20260510060018 | 19 | 5 | 0.0 | 3.2 | 0.00 | 12.40 | 0.00 | 98 | 1013.1 |
| 20260510054517 | 19 | 98 | 4.8 | 6.4 | 0.00 | 12.40 | 0.00 | 98 | 1012.9 |
| 20260510053000 | 19 | 38 | 0.0 | 0.0 | 0.00 | 12.40 | 0.00 | 98 | 1013.0 |
| 20260510051504 | 19 | 37 | 0.0 | 0.0 | 0.00 | 12.40 | 0.00 | 98 | 1013.2 |
| 20260510050004 | 20 | 101 | 0.0 | 4.8 | 0.00 | 12.40 | 0.00 | 98 | 1013.0 |
| 20260510044510 | 20 | 132 | 0.0 | 0.0 | 0.00 | 12.40 | 12.40 | 98 | 1013.0 |
| 20260510043029 | 20 | 143 | 0.0 | 0.0 | 0.00 | 12.40 | 12.40 | 98 | 1013.1 |
| 20260510041501 | 20 | 59 | 0.0 | 4.8 | 0.00 | 12.40 | 12.40 | 98 | 1012.8 |
| 20260510040010 | 20 | 74 | 0.0 | 0.0 | 0.00 | 12.40 | 12.40 | 98 | 1013.3 |
| 20260510034508 | 20 | 348 | 0.0 | 4.8 | 0.00 | 12.40 | 12.40 | 98 | 1013.7 |
| 20260510033012 | 20 | 360 | 1.6 | 3.2 | 0.00 | 12.40 | 12.40 | 98 | 1013.6 |
| 20260510031530 | 20 | 72 | 0.0 | 3.2 | 0.00 | 12.40 | 12.40 | 98 | 1013.5 |
| 20260510030006 | 20 | 139 | 0.0 | 0.0 | 0.03 | 12.40 | 12.40 | 98 | 1013.6 |
| 20260510024507 | 20 | 326 | 0.0 | 6.4 | 0.03 | 12.40 | 12.40 | 98 | 1013.6 |
| 20260510023007 | 20 | 277 | 1.6 | 6.4 | 0.05 | 12.40 | 12.40 | 98 | 1013.3 |
| 20260510021527 | 20 | 195 | 1.6 | 8.0 | 0.05 | 12.40 | 12.40 | 98 | 1012.7 |
| 20260510020003 | 20 | 158 | 3.2 | 9.7 | 0.03 | 12.37 | 12.37 | 98 | 1012.2 |
| 20260510014512 | 20 | 154 | 3.2 | 8.0 | 0.05 | 12.37 | 12.37 | 98 | 1012.0 |
| 20260510013006 | 20 | 9 | 0.0 | 6.4 | 0.03 | 12.34 | 12.34 | 98 | 1012.8 |
| 20260510011516 | 20 | 301 | 0.0 | 6.4 | 0.05 | 12.34 | 12.34 | 98 | 1012.5 |
| 20260510010032 | 20 | 146 | 1.6 | 4.8 | 0.08 | 12.34 | 12.34 | 98 | 1012.2 |
| 20260510004505 | 20 | 154 | 1.6 | 4.8 | 0.08 | 12.32 | 12.32 | 98 | 1012.2 |
| 20260510003004 | 20 | 157 | 3.2 | 8.0 | 0.13 | 12.32 | 12.32 | 98 | 1012.2 |
| 20260510001511 | 20 | 163 | 1.6 | 4.8 | 0.13 | 12.34 | 12.29 | 98 | 1012.3 |
| 20260510000017 | 20 | 132 | 0.0 | 0.0 | 0.10 | 12.40 | 12.27 | 98 | 1012.5 |
| 20260509234523 | 20 | 84 | 0.0 | 3.2 | 0.10 | 12.45 | 12.24 | 98 | 1012.8 |
| 20260509233006 | 20 | 180 | 1.6 | 3.2 | 0.05 | 12.40 | 12.19 | 98 | 1013.0 |
| 20260509231506 | 20 | 121 | 0.0 | 0.0 | 0.05 | 12.40 | 12.17 | 98 | 1012.8 |
| 20260509230023 | 20 | 226 | 0.0 | 3.2 | 0.05 | 12.45 | 12.17 | 97 | 1012.2 |
| 20260509224521 | 20 | 92 | 0.0 | 0.0 | 0.03 | 12.45 | 12.14 | 97 | 1011.6 |
| 20260509223005 | 20 | 84 | 1.6 | 6.4 | 0.03 | 12.45 | 12.14 | 97 | 1011.4 |
| 20260509221507 | 20 | 186 | 3.2 | 8.0 | 0.00 | 12.42 | 12.12 | 97 | 1012.0 |
| 20260509220011 | 20 | 205 | 0.0 | 3.2 | 0.00 | 12.45 | 12.12 | 97 | 1012.2 |
| 20260509214520 | 20 | 190 | 1.6 | 4.8 | 0.03 | 12.50 | 12.12 | 98 | 1012.2 |
| 20260509213028 | 20 | 200 | 0.0 | 8.0 | 0.05 | 12.65 | 12.12 | 98 | 1011.2 |
| 20260509211505 | 20 | 106 | 1.6 | 8.0 | 0.08 | 12.90 | 12.12 | 98 | 1010.8 |
| 20260509210010 | 20 | 139 | 3.2 | 11.3 | 0.18 | 13.41 | 12.12 | 98 | 1010.7 |
| 20260509204513 | 20 | 113 | 1.6 | 6.4 | 0.23 | 13.79 | 12.09 | 98 | 1011.1 |